createdAt,value
2022-10-17T00:01:10.652Z,101090.44
2022-10-17T00:03:40.184Z,101093.94
2022-10-17T00:06:10.445Z,101091.34
2022-10-17T00:08:39.434Z,101102.16
2022-10-17T00:11:09.731Z,101101.41
2022-10-17T00:13:38.220Z,101097.94
2022-10-17T00:16:07.396Z,101088.88
2022-10-17T00:18:37.241Z,101098.13
2022-10-17T00:21:05.544Z,101102.47
2022-10-17T00:23:35.123Z,101100.84
2022-10-17T00:26:05.219Z,101101.72
2022-10-17T00:28:33.957Z,101103.72
2022-10-17T00:31:03.629Z,101102.47
2022-10-17T00:33:32.944Z,101099.16
2022-10-17T00:36:08.137Z,101080.63
2022-10-17T00:38:36.907Z,101089.00
2022-10-17T00:41:05.534Z,101096.56
2022-10-17T00:43:55.740Z,101112.13
2022-10-17T00:46:26.648Z,101101.34
2022-10-17T00:48:56.518Z,101103.31
2022-10-17T00:51:32.332Z,101110.66
2022-10-17T00:54:01.993Z,101101.41
2022-10-17T00:56:31.385Z,101107.97
2022-10-17T00:58:59.598Z,101106.72
2022-10-17T01:01:27.772Z,101088.13
2022-10-17T01:03:56.012Z,101095.94
2022-10-17T01:06:25.402Z,101105.59
2022-10-17T01:08:54.097Z,101100.66
2022-10-17T01:11:34.235Z,101110.22
2022-10-17T01:14:07.621Z,101113.47
2022-10-17T01:16:43.612Z,101084.59
2022-10-17T01:19:31.889Z,101104.81
2022-10-17T01:22:04.565Z,101112.44
2022-10-17T01:25:16.133Z,101109.28
2022-10-17T01:27:57.905Z,101101.31
2022-10-17T01:30:52.908Z,101115.19
2022-10-17T01:33:31.821Z,101114.28
2022-10-17T01:36:07.106Z,101110.78
2022-10-17T01:38:39.012Z,101118.09
2022-10-17T01:41:14.866Z,101116.56
2022-10-17T01:43:51.166Z,101106.84
2022-10-17T01:46:26.678Z,101084.13
2022-10-17T01:48:57.298Z,101099.78
2022-10-17T01:51:32.573Z,101114.47
2022-10-17T01:54:05.771Z,101105.31
2022-10-17T01:56:37.638Z,101107.28
2022-10-17T01:59:12.867Z,101114.28
2022-10-17T02:01:45.615Z,101019.25
2022-10-17T02:04:13.945Z,101104.13
2022-10-17T02:06:42.094Z,101120.00
2022-10-17T02:09:19.792Z,101133.66
2022-10-17T02:11:59.853Z,101107.34
2022-10-17T02:14:37.407Z,101132.44
2022-10-17T02:17:15.310Z,101133.81
2022-10-17T02:19:52.740Z,101113.88
2022-10-17T02:22:32.104Z,101132.50
2022-10-17T02:25:04.252Z,101137.59
2022-10-17T02:27:42.556Z,101129.41
2022-10-17T02:30:17.623Z,101140.97
2022-10-17T02:32:54.432Z,101129.19
2022-10-17T02:35:26.706Z,101149.09
2022-10-17T02:37:56.739Z,101144.09
2022-10-17T02:40:28.148Z,101149.88
2022-10-17T02:42:58.081Z,101159.97
2022-10-17T02:45:29.091Z,101166.50
2022-10-17T02:48:04.800Z,101167.88
2022-10-17T02:50:44.814Z,101167.69
2022-10-17T02:53:17.153Z,101172.72
2022-10-17T02:55:49.740Z,101165.03
2022-10-17T02:58:22.773Z,101170.59
2022-10-17T03:00:52.735Z,101168.66
2022-10-17T03:03:24.745Z,101174.66
2022-10-17T03:05:53.404Z,101179.56
2022-10-17T03:08:22.305Z,101186.50
2022-10-17T03:10:51.173Z,101181.19
2022-10-17T03:13:19.648Z,101181.00
2022-10-17T03:15:48.578Z,101181.31
2022-10-17T03:18:16.686Z,101180.63
2022-10-17T03:20:46.515Z,101173.78
2022-10-17T03:23:14.796Z,101172.94
2022-10-17T03:25:43.462Z,101182.84
2022-10-17T03:28:13.199Z,101185.09
2022-10-17T03:30:41.483Z,101164.50
2022-10-17T03:33:09.629Z,101174.09
2022-10-17T03:35:41.101Z,101180.19
2022-10-17T03:38:10.483Z,101175.97
2022-10-17T03:40:38.508Z,101182.03
2022-10-17T03:43:06.978Z,101187.47
2022-10-17T03:45:35.477Z,101165.16
2022-10-17T03:48:03.478Z,101158.44
2022-10-17T03:50:31.476Z,101146.84
2022-10-17T03:52:59.713Z,101173.25
2022-10-17T03:55:29.246Z,101182.50
2022-10-17T03:57:57.387Z,101191.44
2022-10-17T04:00:25.550Z,101188.75
2022-10-17T04:02:54.397Z,101189.84
2022-10-17T04:05:22.624Z,101186.47
2022-10-17T04:07:51.128Z,101165.94
2022-10-17T04:10:19.244Z,101173.25
2022-10-17T04:12:48.971Z,101181.38
2022-10-17T04:15:16.967Z,101182.97
2022-10-17T04:17:45.807Z,101181.25
2022-10-17T04:20:14.925Z,101187.13
2022-10-17T04:22:42.997Z,101191.53
2022-10-17T04:25:11.069Z,101189.22
2022-10-17T04:27:39.316Z,101187.25
2022-10-17T04:30:10.559Z,101202.00
2022-10-17T04:32:40.179Z,101205.34
2022-10-17T04:35:09.041Z,101206.41
2022-10-17T04:37:37.041Z,101202.63
2022-10-17T04:40:05.758Z,101204.72
2022-10-17T04:42:33.928Z,101204.34
2022-10-17T04:45:01.874Z,101210.53
2022-10-17T04:47:31.730Z,101210.66
2022-10-17T04:49:59.692Z,101217.06
2022-10-17T04:52:28.000Z,101226.16
2022-10-17T04:54:56.474Z,101229.69
2022-10-17T04:57:24.965Z,101219.63
2022-10-17T04:59:53.044Z,101226.94
2022-10-17T05:02:21.096Z,101233.97
2022-10-17T05:04:50.536Z,101247.25
2022-10-17T05:07:18.510Z,101249.63
2022-10-17T05:09:46.568Z,101249.88
2022-10-17T05:12:14.605Z,101254.09
2022-10-17T05:14:42.656Z,101260.16
2022-10-17T05:17:10.653Z,101264.56
2022-10-17T05:19:38.829Z,101262.25
2022-10-17T05:22:08.503Z,101267.38
2022-10-17T05:24:36.545Z,101256.84
2022-10-17T05:27:04.647Z,101259.84
2022-10-17T05:29:32.645Z,101288.72
2022-10-17T05:34:35.230Z,101287.56
2022-10-17T05:37:03.361Z,101295.75
2022-10-17T05:39:32.718Z,101294.66
2022-10-17T05:42:00.721Z,101292.94
2022-10-17T05:44:28.837Z,101300.78
2022-10-17T05:46:57.088Z,101303.00
2022-10-17T05:49:33.350Z,101310.97
2022-10-17T05:52:12.063Z,101306.56
2022-10-17T05:54:41.418Z,101308.41
2022-10-17T05:57:09.552Z,101310.50
2022-10-17T05:59:37.618Z,101312.75
2022-10-17T06:02:05.797Z,101319.59
2022-10-17T06:04:34.398Z,101325.28
2022-10-17T06:07:02.458Z,101326.47
2022-10-17T06:09:30.560Z,101325.78
2022-10-17T06:12:00.593Z,101332.72
2022-10-17T06:14:28.574Z,101312.63
2022-10-17T06:16:56.543Z,101333.28
2022-10-17T06:19:24.602Z,101335.91
2022-10-17T06:21:52.512Z,101342.69
2022-10-17T06:24:20.531Z,101347.53
2022-10-17T06:26:50.016Z,101321.41
2022-10-17T06:29:19.318Z,101344.66
2022-10-17T06:31:47.389Z,101344.06
2022-10-17T06:34:15.436Z,101350.19
2022-10-17T06:36:43.990Z,101356.19
2022-10-17T06:39:11.949Z,101356.84
2022-10-17T06:41:41.202Z,101356.91
2022-10-17T06:44:11.415Z,101360.91
2022-10-17T06:46:42.218Z,101361.88
2022-10-17T06:49:11.686Z,101334.00
2022-10-17T06:51:40.581Z,101357.09
2022-10-17T06:54:08.844Z,101353.31
2022-10-17T06:56:36.885Z,101355.56
2022-10-17T06:59:05.330Z,101355.28
2022-10-17T07:01:34.358Z,101345.78
2022-10-17T07:04:04.364Z,101358.50
2022-10-17T07:06:32.917Z,101361.25
2022-10-17T07:09:02.949Z,101356.94
2022-10-17T07:11:31.255Z,101363.34
2022-10-17T07:13:59.652Z,101364.94
2022-10-17T07:16:27.854Z,101369.75
2022-10-17T07:18:56.970Z,101374.19
2022-10-17T07:21:26.672Z,101364.59
2022-10-17T07:23:54.908Z,101351.25
2022-10-17T07:26:23.797Z,101377.91
2022-10-17T07:28:56.350Z,101370.91
2022-10-17T07:31:24.864Z,101383.13
2022-10-17T07:33:53.334Z,101372.16
2022-10-17T07:36:21.591Z,101374.91
2022-10-17T07:38:51.210Z,101385.06
2022-10-17T07:41:21.727Z,101387.50
2022-10-17T07:43:50.354Z,101375.16
2022-10-17T07:46:18.495Z,101377.66
2022-10-17T07:48:46.580Z,101383.06
2022-10-17T07:51:15.042Z,101375.84
2022-10-17T07:53:46.531Z,101375.69
2022-10-17T07:56:18.579Z,101375.97
2022-10-17T07:58:48.369Z,101379.69
2022-10-17T08:01:16.479Z,101380.97
2022-10-17T08:03:45.702Z,101372.28
2022-10-17T08:06:14.313Z,101362.09
2022-10-17T08:08:42.866Z,101370.72
2022-10-17T08:11:12.814Z,101367.47
2022-10-17T08:13:43.366Z,101342.97
2022-10-17T08:16:13.856Z,101358.66
2022-10-17T08:18:44.457Z,101363.75
2022-10-17T08:21:14.414Z,101368.81
2022-10-17T08:23:42.379Z,101362.19
2022-10-17T08:26:13.563Z,101361.56
2022-10-17T08:28:43.339Z,101369.44
2022-10-17T08:31:13.909Z,101372.28
2022-10-17T08:33:42.834Z,101366.81
2022-10-17T08:36:11.257Z,101368.00
2022-10-17T08:38:43.141Z,101366.91
2022-10-17T08:41:18.372Z,101360.91
2022-10-17T08:44:04.973Z,101344.50
2022-10-17T08:46:37.150Z,101369.31
2022-10-17T08:49:21.021Z,101374.50
2022-10-17T08:51:54.634Z,101362.88
2022-10-17T08:54:34.116Z,101365.00
2022-10-17T08:57:02.330Z,101355.47
2022-10-17T08:59:33.477Z,101360.13
2022-10-17T09:02:05.581Z,101293.94
2022-10-17T09:04:47.329Z,101358.00
2022-10-17T09:07:23.575Z,101343.56
2022-10-17T09:10:00.594Z,101359.25
2022-10-17T09:12:41.688Z,101351.31
2022-10-17T09:15:26.653Z,101349.72
2022-10-17T09:17:57.735Z,101343.34
2022-10-17T09:20:29.703Z,101342.13
2022-10-17T09:23:01.163Z,101351.59
2022-10-17T09:25:29.746Z,101336.88
2022-10-17T09:28:16.914Z,101334.16
2022-10-17T09:30:48.658Z,101340.28
2022-10-17T09:33:34.291Z,101343.16
2022-10-17T09:36:07.843Z,101339.72
2022-10-17T09:38:40.878Z,101336.94
2022-10-17T09:44:20.002Z,101331.22
2022-10-17T09:47:06.921Z,101328.25
2022-10-17T09:49:38.426Z,101327.00
2022-10-17T09:52:11.902Z,101324.75
2022-10-17T09:54:45.221Z,101328.38
2022-10-17T09:57:14.779Z,101321.66
2022-10-17T09:59:45.297Z,101329.09
2022-10-17T10:02:21.273Z,101318.03
2022-10-17T10:05:06.753Z,101316.53
2022-10-17T10:07:37.765Z,101317.16
2022-10-17T10:10:08.385Z,101309.44
2022-10-17T10:12:39.033Z,101303.78
2022-10-17T10:15:35.117Z,101265.63
2022-10-17T10:18:04.920Z,101299.53
2022-10-17T10:20:35.949Z,101305.47
2022-10-17T10:23:12.092Z,101295.56
2022-10-17T10:25:50.148Z,101291.47
2022-10-17T10:28:19.871Z,101289.66
2022-10-17T10:30:51.169Z,101296.16
2022-10-17T10:33:23.251Z,101294.78
2022-10-17T10:35:57.323Z,101289.56
2022-10-17T10:38:25.665Z,101283.66
2022-10-17T10:40:56.876Z,101288.13
2022-10-17T10:43:36.759Z,101279.16
2022-10-17T10:46:16.822Z,101271.66
2022-10-17T10:48:54.931Z,101253.13
2022-10-17T10:51:28.934Z,101272.91
2022-10-17T10:54:04.379Z,101265.53
2022-10-17T10:56:38.911Z,101257.50
2022-10-17T10:59:15.001Z,101250.53
2022-10-17T11:01:49.361Z,101256.53
2022-10-17T11:04:28.722Z,101251.13
2022-10-17T11:07:02.788Z,101251.19
2022-10-17T11:09:42.184Z,101248.38
2022-10-17T11:12:16.120Z,101245.63
2022-10-17T11:14:48.208Z,101252.97
2022-10-17T11:17:29.020Z,101242.69
2022-10-17T11:20:12.533Z,101245.38
2022-10-17T11:22:45.717Z,101242.50
2022-10-17T11:25:30.297Z,101239.19
2022-10-17T11:28:02.293Z,101232.38
2022-10-17T11:30:46.688Z,101234.19
2022-10-17T11:33:19.817Z,101231.97
2022-10-17T11:35:53.078Z,101222.75
2022-10-17T11:38:26.934Z,101216.16
2022-10-17T11:40:58.981Z,101215.63
2022-10-17T11:43:32.544Z,101220.59
2022-10-17T11:46:14.925Z,101212.63
2022-10-17T11:48:48.713Z,101213.41
2022-10-17T11:54:13.005Z,101207.22
2022-10-17T11:56:45.827Z,101204.53
2022-10-17T11:59:49.097Z,101205.44
2022-10-17T12:02:28.784Z,101198.88
2022-10-17T12:05:05.742Z,101198.16
2022-10-17T12:10:26.008Z,101184.19
2022-10-17T12:12:54.489Z,101203.63
2022-10-17T12:15:30.433Z,101192.59
2022-10-17T12:18:02.694Z,101201.41
2022-10-17T12:20:36.938Z,101197.63
2022-10-17T12:23:24.787Z,101195.25
2022-10-17T12:25:57.099Z,101186.84
2022-10-17T12:28:31.584Z,101185.16
2022-10-17T12:31:03.013Z,101186.72
2022-10-17T12:33:36.757Z,101183.72
2022-10-17T12:36:39.001Z,101186.66
2022-10-17T12:39:49.315Z,101189.72
2022-10-17T12:42:51.215Z,101187.03
2022-10-17T12:45:51.577Z,101184.88
2022-10-17T12:49:13.594Z,101182.84
2022-10-17T12:52:21.758Z,101186.63
2022-10-17T12:55:00.580Z,101181.41
2022-10-17T12:57:45.306Z,101189.88
2022-10-17T13:00:22.902Z,101179.69
2022-10-17T13:02:53.282Z,101181.91
2022-10-17T13:05:28.861Z,101183.72
2022-10-17T13:08:00.164Z,101184.56
2022-10-17T13:10:30.238Z,101189.78
2022-10-17T13:13:07.124Z,101190.59
2022-10-17T13:15:38.322Z,101190.06
2022-10-17T13:18:06.748Z,101191.28
2022-10-17T13:20:34.963Z,101181.66
2022-10-17T13:23:03.802Z,101198.09
2022-10-17T13:25:31.856Z,101192.84
2022-10-17T13:28:14.730Z,101189.66
2022-10-17T13:30:49.729Z,101187.22
2022-10-17T13:33:32.090Z,101185.59
2022-10-17T13:36:01.539Z,101190.72
2022-10-17T13:38:35.714Z,101181.78
2022-10-17T13:44:03.589Z,101190.28
2022-10-17T13:46:39.530Z,101163.88
2022-10-17T13:49:25.737Z,101162.19
2022-10-17T13:51:56.266Z,101183.31
2022-10-17T13:54:35.601Z,101170.13
2022-10-17T13:57:06.028Z,101178.19
2022-10-17T13:59:40.044Z,101168.53
2022-10-17T14:02:15.724Z,101170.75
2022-10-17T14:05:15.531Z,101169.53
2022-10-17T14:08:05.519Z,101179.69
2022-10-17T14:10:28.622Z,101175.53
2022-10-17T14:12:57.474Z,101167.69
2022-10-17T14:15:28.321Z,101173.13
2022-10-17T14:18:04.234Z,101170.22
2022-10-17T14:23:37.201Z,101178.41
2022-10-17T14:26:12.047Z,101176.66
2022-10-17T14:28:40.779Z,101162.28
2022-10-17T14:31:33.594Z,101175.53
2022-10-17T14:34:05.738Z,101176.66
2022-10-17T14:36:38.696Z,101179.47
2022-10-17T14:39:14.148Z,101178.50
2022-10-17T14:41:45.592Z,101186.72
2022-10-17T14:44:23.608Z,101186.44
2022-10-17T14:46:55.555Z,101188.41
2022-10-17T14:49:32.606Z,101165.66
2022-10-17T14:52:27.439Z,101187.28
2022-10-17T14:54:55.876Z,101186.47
2022-10-17T14:57:27.660Z,101193.72
2022-10-17T14:59:57.410Z,101195.66
2022-10-17T15:02:26.659Z,101178.06
2022-10-17T15:04:56.486Z,101194.97
2022-10-17T15:07:24.821Z,101198.41
2022-10-17T15:09:54.624Z,101201.75
2022-10-17T15:12:25.206Z,101201.75
2022-10-17T15:14:54.749Z,101197.25
2022-10-17T15:17:26.069Z,101175.09
2022-10-17T15:19:54.374Z,101191.25
2022-10-17T15:22:24.075Z,101189.44
2022-10-17T15:24:52.077Z,101195.00
2022-10-17T15:27:21.996Z,101196.25
2022-10-17T15:29:50.766Z,101192.47
2022-10-17T15:32:18.816Z,101190.50
2022-10-17T15:34:46.957Z,101200.66
2022-10-17T15:37:20.973Z,101192.41
2022-10-17T15:39:53.659Z,101197.84
2022-10-17T15:42:23.194Z,101195.16
2022-10-17T15:44:51.509Z,101202.22
2022-10-17T15:47:28.373Z,101202.47
2022-10-17T15:49:57.036Z,101198.13
2022-10-17T15:52:25.489Z,101186.91
2022-10-17T15:54:57.315Z,101204.72
2022-10-17T15:57:30.033Z,101199.81
2022-10-17T16:00:00.264Z,101208.16
2022-10-17T16:02:28.838Z,101201.38
2022-10-17T16:04:56.816Z,101221.31
2022-10-17T16:07:24.813Z,101220.47
2022-10-17T16:09:54.378Z,101209.16
2022-10-17T16:12:29.014Z,101208.97
2022-10-17T16:14:57.382Z,101219.81
2022-10-17T16:17:25.517Z,101223.81
2022-10-17T16:19:53.517Z,101225.88
2022-10-17T16:22:28.962Z,101227.22
2022-10-17T16:25:07.517Z,101223.78
2022-10-17T16:27:36.591Z,101227.03
2022-10-17T16:30:06.278Z,101229.06
2022-10-17T16:32:34.979Z,101234.59
2022-10-17T16:35:03.271Z,101238.47
2022-10-17T16:37:31.412Z,101235.22
2022-10-17T16:40:00.872Z,101219.78
2022-10-17T16:42:29.308Z,101241.88
2022-10-17T16:44:57.838Z,101244.06
2022-10-17T16:47:25.890Z,101252.72
2022-10-17T16:49:54.026Z,101247.69
2022-10-17T16:52:22.316Z,101226.31
2022-10-17T16:54:51.018Z,101250.94
2022-10-17T16:57:20.502Z,101259.34
2022-10-17T16:59:48.656Z,101256.81
2022-10-17T17:02:21.187Z,101261.84
2022-10-17T17:04:49.757Z,101261.59
2022-10-17T17:07:18.900Z,101267.81
2022-10-17T17:09:47.973Z,101257.50
2022-10-17T17:12:16.384Z,101263.50
2022-10-17T17:14:46.328Z,101258.34
2022-10-17T17:17:24.408Z,101265.91
2022-10-17T17:20:02.446Z,101271.50
2022-10-17T17:22:30.594Z,101276.31
2022-10-17T17:24:58.695Z,101266.72
2022-10-17T17:27:29.755Z,101268.47
2022-10-17T17:29:59.375Z,101278.69
2022-10-17T17:32:27.571Z,101277.34
2022-10-17T17:34:55.541Z,101282.91
2022-10-17T17:37:23.617Z,101281.19
2022-10-17T17:39:51.677Z,101278.09
2022-10-17T17:42:20.544Z,101269.34
2022-10-17T17:44:49.636Z,101284.50
2022-10-17T17:47:19.341Z,101283.13
2022-10-17T17:49:47.416Z,101293.78
2022-10-17T17:52:15.492Z,101287.41
2022-10-17T17:54:43.467Z,101290.59
2022-10-17T17:57:12.974Z,101293.22
2022-10-17T17:59:41.806Z,101292.91
2022-10-17T18:02:11.087Z,101294.63
2022-10-17T18:04:40.597Z,101299.66
2022-10-17T18:07:08.609Z,101303.69
2022-10-17T18:09:36.832Z,101305.94
2022-10-17T18:12:05.595Z,101309.44
2022-10-17T18:14:33.630Z,101306.59
2022-10-17T18:17:01.743Z,101317.88
2022-10-17T18:19:29.956Z,101314.81
2022-10-17T18:21:59.946Z,101316.63
2022-10-17T18:24:27.876Z,101312.16
2022-10-17T18:27:00.035Z,101319.56
2022-10-17T18:29:29.474Z,101313.84
2022-10-17T18:31:57.565Z,101323.59
2022-10-17T18:34:25.794Z,101313.59
2022-10-17T18:36:54.353Z,101323.19
2022-10-17T18:39:24.187Z,101321.63
2022-10-17T18:41:52.847Z,101321.97
2022-10-17T18:44:21.161Z,101318.00
2022-10-17T18:46:50.009Z,101334.34
2022-10-17T18:49:19.988Z,101329.09
2022-10-17T18:51:48.721Z,101334.16
2022-10-17T18:54:20.549Z,101269.78
2022-10-17T18:56:51.067Z,101340.44
2022-10-17T18:59:19.476Z,101329.13
2022-10-17T19:01:48.299Z,101336.25
2022-10-17T19:04:17.056Z,101343.72
2022-10-17T19:06:45.841Z,101346.22
2022-10-17T19:09:16.343Z,101345.88
2022-10-17T19:11:45.029Z,101345.41
2022-10-17T19:14:15.059Z,101355.94
2022-10-17T19:16:45.054Z,101350.88
2022-10-17T19:19:14.956Z,101357.53
2022-10-17T19:21:43.856Z,101359.97
2022-10-17T19:24:15.943Z,101359.31
2022-10-17T19:26:45.547Z,101367.75
2022-10-17T19:29:17.015Z,101359.78
2022-10-17T19:31:45.895Z,101359.59
2022-10-17T19:34:15.647Z,101358.59
2022-10-17T19:36:44.085Z,101366.56
2022-10-17T19:39:14.275Z,101358.53
2022-10-17T19:41:43.021Z,101363.31
2022-10-17T19:44:11.594Z,101365.84
2022-10-17T19:46:41.598Z,101360.78
2022-10-17T19:49:09.700Z,101371.81
2022-10-17T19:51:39.647Z,101364.31
2022-10-17T19:54:08.115Z,101370.53
2022-10-17T19:56:38.359Z,101359.84
2022-10-17T19:59:07.180Z,101356.84
2022-10-17T20:01:38.745Z,101364.06
2022-10-17T20:04:10.755Z,101352.91
2022-10-17T20:06:39.647Z,101339.28
2022-10-17T20:09:10.983Z,101361.84
2022-10-17T20:11:42.416Z,101381.25
2022-10-17T20:14:10.300Z,101366.06
2022-10-17T20:16:38.383Z,101362.91
2022-10-17T20:19:09.760Z,101384.16
2022-10-17T20:21:39.702Z,101375.53
2022-10-17T20:24:10.249Z,101365.38
2022-10-17T20:26:39.651Z,101369.16
2022-10-17T20:29:12.488Z,101353.72
2022-10-17T20:31:42.751Z,101363.44
2022-10-17T20:34:14.843Z,101363.38
2022-10-17T20:36:43.554Z,101360.88
2022-10-17T20:39:13.578Z,101360.41
2022-10-17T20:41:41.864Z,101350.97
2022-10-17T20:44:10.390Z,101363.41
2022-10-17T20:46:44.772Z,101366.66
2022-10-17T20:49:22.765Z,101372.84
2022-10-17T20:51:50.784Z,101371.44
2022-10-17T20:54:18.837Z,101363.91
2022-10-17T20:56:46.922Z,101334.88
2022-10-17T20:59:17.161Z,101375.44
2022-10-17T21:01:46.314Z,101375.13
2022-10-17T21:04:44.200Z,101344.81
2022-10-17T21:07:05.553Z,101369.56
2022-10-17T21:09:33.748Z,101381.41
2022-10-17T21:12:03.691Z,101376.94
2022-10-17T21:14:31.952Z,101377.78
2022-10-17T21:17:04.708Z,101385.91
2022-10-17T21:19:33.371Z,101384.94
2022-10-17T21:22:01.522Z,101389.03
2022-10-17T21:24:31.694Z,101387.41
2022-10-17T21:26:59.778Z,101361.16
2022-10-17T21:29:28.199Z,101387.88
2022-10-17T21:31:56.138Z,101367.47
2022-10-17T21:34:25.560Z,101386.63
2022-10-17T21:36:53.921Z,101383.63
2022-10-17T21:39:24.207Z,101384.56
2022-10-17T21:41:54.233Z,101382.22
2022-10-17T21:44:24.308Z,101383.72
2022-10-17T21:46:53.131Z,101390.84
2022-10-17T21:49:22.551Z,101384.47
2022-10-17T21:51:51.970Z,101391.09
2022-10-17T21:54:21.505Z,101371.31
2022-10-17T21:56:49.900Z,101385.28
2022-10-17T21:59:19.592Z,101378.84
2022-10-17T22:01:47.776Z,101371.88
2022-10-17T22:04:18.766Z,101374.19
2022-10-17T22:06:51.191Z,101388.94
2022-10-17T22:09:23.465Z,101386.84
2022-10-17T22:11:53.056Z,101376.38
2022-10-17T22:14:24.320Z,101373.31
2022-10-17T22:16:52.636Z,101373.56
2022-10-17T22:19:22.772Z,101373.88
2022-10-17T22:21:51.426Z,101376.47
2022-10-17T22:26:49.935Z,101373.28
2022-10-17T22:29:18.707Z,101375.19
2022-10-17T22:31:48.414Z,101361.81
2022-10-17T22:34:17.991Z,101357.66
2022-10-17T22:36:47.788Z,101371.81
2022-10-17T22:39:16.178Z,101372.41
2022-10-17T22:41:44.192Z,101370.97
2022-10-17T22:44:12.197Z,101352.03
2022-10-17T22:46:40.277Z,101375.19
2022-10-17T22:49:09.693Z,101370.97
2022-10-17T22:51:37.717Z,101380.25
2022-10-17T22:54:05.827Z,101385.53
2022-10-17T22:56:33.969Z,101372.47
2022-10-17T22:59:02.040Z,101381.50
2022-10-17T23:01:30.132Z,101378.31
2022-10-17T23:03:58.110Z,101371.56
2022-10-17T23:06:27.483Z,101373.66
2022-10-17T23:08:55.619Z,101376.19
2022-10-17T23:11:23.683Z,101370.28
2022-10-17T23:13:52.013Z,101365.81
2022-10-17T23:16:19.990Z,101368.56
2022-10-17T23:18:48.009Z,101365.31
2022-10-17T23:21:15.980Z,101176.31
2022-10-17T23:23:45.514Z,101370.09
2022-10-17T23:26:14.922Z,101363.41
2022-10-17T23:28:44.170Z,101365.56
2022-10-17T23:31:14.286Z,101358.47
2022-10-17T23:33:42.750Z,101370.59
2022-10-17T23:36:11.641Z,101360.78
2022-10-17T23:38:39.823Z,101359.66
2022-10-17T23:41:09.635Z,101363.41
2022-10-17T23:43:38.298Z,101367.09
2022-10-17T23:46:07.582Z,101356.41
2022-10-17T23:48:35.506Z,101366.56
2022-10-17T23:51:03.496Z,101366.72
2022-10-17T23:53:31.626Z,101365.34
2022-10-17T23:55:59.615Z,101351.00
2022-10-17T23:58:29.070Z,101348.00
